Country
Station

 

Weather  for  Dijon  -  France    France

  
1 °C (34 °F)
    
 
 

Current METAR for Dijon is :

LFSD 210800Z AUTO 02006KT 2900 BR OVC007 01/M00 Q1019

 

This is a report for Dijon - France.
 
The report was made 33 minutes ago, at 08:00 UTC .
The wind was blowing at a speed of 3.1 meters per second (6.9 miles per hour) from north/northeast (020°).
 
The temperature was 1 °C (34 °F)
The temperature felt like -3 °C (28 °F).
 
The atmospheric pressure was 1019 hPa (30.09 inHg).
The sky was overcast from a height of 213 meter (700 feet)
 
The overall visibility was 2900 meter (9514 feet).
 
Currently mist.

 
 
 
 

Country :   A   B   C   D   E   F   G   H   I   J   K   L   M   N   O   P   Q   R   S   T   U   V   W   Y   Z

 

Site Info  |  Disclaimer  |  Credits  |  Privacy
Contact us  |  Add to favorites
© 2013-2019 METARs - All rights reserved